Time;durP1;ratioP1;P1;durP2;ratioP2;P2;SDS_P1;SDS_P2;PMS_P1;PMS_P2;Temp;Humidity;BMP_temperature;BMP_pressure;BME280_temperature;BME280_humidity;BME280_pressure;Samples;Min_cycle;Max_cycle;Signal;HPM_P1;HPM_P2
2021/04/20 00:02:09;;;;;;;12.32;8.90;;;7.80;81.40;;;;;;4813866;29;20034;-88
2021/04/20 00:04:37;;;;;;;14.57;9.65;;;7.80;82.20;;;;;;4813406;29;20037;-89
2021/04/20 00:07:03;;;;;;;12.23;9.63;;;7.90;81.80;;;;;;4814422;29;20038;-88
2021/04/20 00:09:29;;;;;;;12.40;8.73;;;7.90;82.10;;;;;;4830027;29;20114;-88
2021/04/20 00:11:55;;;;;;;13.73;9.20;;;7.80;81.80;;;;;;4829125;29;20030;-89
2021/04/20 00:14:21;;;;;;;11.82;8.60;;;7.80;82.00;;;;;;4826365;29;20034;-88
2021/04/20 00:16:47;;;;;;;10.00;7.80;;;7.70;82.00;;;;;;4825743;29;20125;-88
2021/04/20 00:19:13;;;;;;;12.75;8.85;;;7.70;81.60;;;;;;4825214;29;20042;-88
2021/04/20 00:21:39;;;;;;;12.90;8.85;;;7.60;82.40;;;;;;4810528;29;20097;-88
2021/04/20 00:24:05;;;;;;;14.65;9.82;;;7.60;82.40;;;;;;4810732;29;20035;-88
2021/04/20 00:26:31;;;;;;;12.68;8.40;;;7.60;82.80;;;;;;4810707;29;20034;-88
2021/04/20 00:28:59;;;;;;;12.95;9.13;;;7.50;83.10;;;;;;4826180;29;20052;-88
2021/04/20 00:31:25;;;;;;;15.43;11.63;;;7.50;83.40;;;;;;4829357;29;20072;-88
2021/04/20 00:33:51;;;;;;;12.88;9.52;;;7.40;83.90;;;;;;4829684;29;20518;-88
2021/04/20 00:36:19;;;;;;;14.15;9.52;;;7.40;83.80;;;;;;4845136;29;20106;-88
2021/04/20 00:38:46;;;;;;;11.52;7.90;;;7.40;84.10;;;;;;4847916;29;20030;-88
2021/04/20 00:41:14;;;;;;;12.60;8.20;;;7.30;83.30;;;;;;4865399;29;20042;-88
2021/04/20 00:43:44;;;;;;;15.27;9.63;;;7.30;84.10;;;;;;4865618;29;20037;-87
2021/04/20 00:46:15;;;;;;;15.60;11.82;;;7.30;84.00;;;;;;4865461;29;20029;-88
2021/04/20 00:48:42;;;;;;;14.95;10.02;;;7.30;85.80;;;;;;4866493;29;20093;-88
2021/04/20 00:51:08;;;;;;;14.98;10.02;;;7.20;85.60;;;;;;4832566;29;20074;-87
2021/04/20 00:53:35;;;;;;;11.57;8.18;;;7.30;84.80;;;;;;4831744;29;20040;-88
2021/04/20 00:56:11;;;;;;;13.07;8.88;;;7.20;84.90;;;;;;4845769;29;20034;-88
2021/04/20 00:58:37;;;;;;;11.15;7.97;;;7.20;84.90;;;;;;4843838;29;20134;-88
2021/04/20 01:01:04;;;;;;;13.98;9.65;;;7.10;84.70;;;;;;4842902;29;20447;-88
2021/04/20 01:03:30;;;;;;;11.48;8.32;;;7.10;85.80;;;;;;4843302;29;20122;-89
2021/04/20 01:05:56;;;;;;;12.48;9.27;;;7.10;85.50;;;;;;4842930;29;20038;-88
2021/04/20 01:08:25;;;;;;;14.48;9.93;;;7.10;86.10;;;;;;4843480;29;20535;-88
2021/04/20 01:10:54;;;;;;;13.57;9.10;;;7.00;86.30;;;;;;4843074;29;20034;-88
2021/04/20 01:13:25;;;;;;;15.07;10.75;;;7.00;86.20;;;;;;4843926;29;20026;-88
2021/04/20 01:15:55;;;;;;;12.77;9.25;;;7.00;87.20;;;;;;4842857;29;20038;-88
2021/04/20 01:18:20;;;;;;;13.68;9.55;;;6.90;87.20;;;;;;4843640;29;20478;-88
2021/04/20 01:20:50;;;;;;;13.52;8.80;;;6.90;86.90;;;;;;4843051;29;20037;-88
2021/04/20 01:23:33;;;;;;;15.70;10.70;;;6.90;87.90;;;;;;4827710;29;20051;-88
2021/04/20 01:25:59;;;;;;;18.38;12.40;;;6.90;88.30;;;;;;4826411;29;20034;-88
2021/04/20 01:28:27;;;;;;;20.75;12.45;;;6.90;88.00;;;;;;4827447;29;20466;-88
2021/04/20 01:30:53;;;;;;;20.08;13.95;;;6.90;87.90;;;;;;4844819;29;20025;-89
2021/04/20 01:33:19;;;;;;;21.08;13.05;;;6.90;89.00;;;;;;4842345;29;20050;-89
2021/04/20 01:35:45;;;;;;;19.70;12.90;;;6.80;89.70;;;;;;4843830;29;20033;-89
2021/04/20 01:38:11;;;;;;;17.35;12.55;;;6.90;89.20;;;;;;4844097;29;20041;-89
2021/04/20 01:40:36;;;;;;;14.73;10.60;;;6.90;89.40;;;;;;4842879;29;20025;-88
2021/04/20 01:43:03;;;;;;;18.92;12.52;;;6.90;89.50;;;;;;4844158;29;20068;-92
2021/04/20 01:45:30;;;;;;;17.75;12.13;;;6.90;90.20;;;;;;4842919;29;20030;-88
2021/04/20 01:47:57;;;;;;;17.63;12.82;;;6.90;89.80;;;;;;4846281;29;20067;-89
2021/04/20 01:50:23;;;;;;;19.23;12.77;;;6.90;90.10;;;;;;4858775;29;20486;-89
2021/04/20 01:52:50;;;;;;;21.23;14.05;;;6.90;90.20;;;;;;4873341;29;20034;-89
2021/04/20 01:55:16;;;;;;;15.18;9.88;;;6.90;90.00;;;;;;4858867;29;20049;-89
2021/04/20 01:57:46;;;;;;;18.15;11.98;;;6.90;89.80;;;;;;4863825;29;20523;-88
2021/04/20 02:00:14;;;;;;;21.00;13.45;;;6.90;89.90;;;;;;4858689;29;20420;-89
2021/04/20 02:02:41;;;;;;;21.15;13.45;;;6.90;90.30;;;;;;4842900;29;20057;-89
2021/04/20 02:05:09;;;;;;;28.88;17.75;;;6.90;90.10;;;;;;4858683;29;20078;-89
2021/04/20 02:07:38;;;;;;;28.08;17.60;;;6.90;90.40;;;;;;4857604;29;20065;-89
2021/04/20 02:10:07;;;;;;;22.80;15.18;;;6.90;90.60;;;;;;4858272;29;20125;-88
2021/04/20 02:12:34;;;;;;;21.65;14.43;;;6.90;90.30;;;;;;4842443;29;20110;-89
2021/04/20 02:15:01;;;;;;;20.67;13.90;;;6.90;90.00;;;;;;4842573;29;20106;-89
2021/04/20 02:17:28;;;;;;;21.60;13.68;;;6.90;90.20;;;;;;4842250;29;20043;-89
2021/04/20 02:19:54;;;;;;;16.30;10.63;;;6.80;90.00;;;;;;4842081;29;20117;-89
2021/04/20 02:22:22;;;;;;;16.98;12.60;;;6.80;90.10;;;;;;4846135;29;20085;-88
2021/04/20 02:24:51;;;;;;;19.88;12.10;;;6.80;90.00;;;;;;4875209;29;20067;-88
2021/04/20 02:27:19;;;;;;;19.15;12.98;;;6.80;90.00;;;;;;4880880;29;20451;-88
2021/04/20 02:29:45;;;;;;;19.73;14.43;;;6.70;90.40;;;;;;4864222;29;20030;-88
2021/04/20 02:32:11;;;;;;;18.80;12.35;;;6.70;90.90;;;;;;4849024;29;20069;-88
2021/04/20 02:34:37;;;;;;;21.88;13.23;;;6.70;90.80;;;;;;4829864;29;20030;-88
2021/04/20 02:37:03;;;;;;;21.73;13.80;;;6.60;90.80;;;;;;4820885;29;20034;-88
2021/04/20 02:39:29;;;;;;;23.55;14.65;;;6.60;91.00;;;;;;4809023;29;20440;-89
2021/04/20 02:41:55;;;;;;;21.08;14.65;;;6.60;90.90;;;;;;4808779;29;20065;-89
2021/04/20 02:44:24;;;;;;;19.67;13.30;;;6.60;91.20;;;;;;4808518;29;20042;-89
2021/04/20 02:46:50;;;;;;;20.67;13.90;;;6.60;90.90;;;;;;4808547;29;20038;-88
2021/04/20 02:49:18;;;;;;;18.38;11.65;;;6.60;91.00;;;;;;4808334;29;20031;-89
2021/04/20 02:51:44;;;;;;;21.67;13.95;;;6.60;90.70;;;;;;4808511;29;20034;-89
2021/04/20 02:54:11;;;;;;;20.38;12.98;;;6.60;90.90;;;;;;4808405;29;20042;-88
2021/04/20 02:56:39;;;;;;;18.48;13.65;;;6.50;91.00;;;;;;4808187;29;20031;-89
2021/04/20 02:59:12;;;;;;;21.20;13.75;;;6.60;91.20;;;;;;4808442;29;20398;-88
2021/04/20 03:01:41;;;;;;;21.90;14.10;;;6.60;91.30;;;;;;4808232;29;20068;-88
2021/04/20 03:04:11;;;;;;;19.88;13.05;;;6.50;91.60;;;;;;4808253;29;20061;-89
2021/04/20 03:06:40;;;;;;;22.27;14.63;;;6.60;91.10;;;;;;4808279;29;20062;-89
2021/04/20 03:09:06;;;;;;;21.23;14.73;;;6.60;91.40;;;;;;4808385;29;20027;-89
2021/04/20 03:11:53;;;;;;;20.30;15.05;;;6.60;91.50;;;;;;4809303;29;20031;-88
2021/04/20 03:14:19;;;;;;;19.23;13.07;;;6.60;91.50;;;;;;4824848;29;20410;-89
2021/04/20 03:16:51;;;;;;;19.15;11.38;;;6.70;91.10;;;;;;4824889;29;20451;-88
2021/04/20 03:19:17;;;;;;;19.13;12.32;;;6.70;91.10;;;;;;4824528;29;20091;-89
2021/04/20 03:21:45;;;;;;;15.95;10.93;;;6.80;91.20;;;;;;4808309;29;20035;-89
2021/04/20 03:24:33;;;;;;;17.08;12.85;;;6.90;91.30;;;;;;4810045;29;20038;-89
2021/04/20 03:26:59;;;;;;;15.57;10.82;;;7.00;91.40;;;;;;4826946;29;20037;-88
2021/04/20 03:29:27;;;;;;;13.13;9.50;;;7.10;91.20;;;;;;4811621;29;20482;-89
2021/04/20 03:31:53;;;;;;;12.88;8.77;;;7.20;91.10;;;;;;4811726;29;20059;-89
2021/04/20 03:34:34;;;;;;;15.10;10.65;;;7.30;91.00;;;;;;4811482;29;20046;-89
2021/04/20 03:37:13;;;;;;;14.95;10.02;;;7.40;91.00;;;;;;4811934;29;20034;-89
2021/04/20 03:39:44;;;;;;;16.00;10.10;;;7.50;90.90;;;;;;4811700;29;20031;-89
2021/04/20 03:42:23;;;;;;;15.60;10.15;;;7.60;90.70;;;;;;4812180;29;20364;-90
2021/04/20 03:44:53;;;;;;;15.90;11.02;;;7.60;90.60;;;;;;4811698;29;20034;-89
2021/04/20 03:47:36;;;;;;;16.83;11.88;;;7.70;90.60;;;;;;4826912;29;20035;-89
2021/04/20 03:50:06;;;;;;;20.75;14.68;;;7.80;90.60;;;;;;4826792;29;20084;-88
2021/04/20 03:52:39;;;;;;;19.92;14.75;;;7.80;90.60;;;;;;4811912;29;20463;-89
2021/04/20 03:55:08;;;;;;;19.30;14.98;;;7.90;90.50;;;;;;4827325;29;20455;-89
2021/04/20 03:57:35;;;;;;;18.98;13.77;;;7.90;90.40;;;;;;4810822;29;20031;-88
2021/04/20 04:00:05;;;;;;;18.70;12.52;;;7.90;90.30;;;;;;4811111;29;20034;-89
2021/04/20 04:02:36;;;;;;;21.02;15.27;;;7.90;90.30;;;;;;4810551;29;20034;-89
2021/04/20 04:05:07;;;;;;;21.85;14.93;;;7.90;90.20;;;;;;4811162;29;20034;-89
2021/04/20 04:07:35;;;;;;;22.63;13.93;;;7.90;90.20;;;;;;4821244;29;20015;-88
2021/04/20 04:10:04;;;;;;;21.77;16.15;;;7.90;90.10;;;;;;4831911;29;20026;-88
2021/04/20 04:12:37;;;;;;;19.77;13.02;;;8.00;90.10;;;;;;4845420;29;20090;-90
2021/04/20 04:15:07;;;;;;;18.80;12.48;;;7.90;89.80;;;;;;4829778;29;20053;-89
2021/04/20 04:17:35;;;;;;;20.92;14.90;;;8.00;89.90;;;;;;4829423;29;20083;-88
2021/04/20 04:20:04;;;;;;;21.52;14.43;;;8.00;89.80;;;;;;4828442;29;20034;-89
2021/04/20 04:22:34;;;;;;;22.15;14.77;;;8.00;89.60;;;;;;4810431;29;20026;-89
2021/04/20 04:25:03;;;;;;;25.13;16.88;;;8.00;89.30;;;;;;4827411;29;20042;-89
2021/04/20 04:27:34;;;;;;;20.70;15.82;;;7.90;89.10;;;;;;4810579;29;20034;-89
2021/04/20 04:30:06;;;;;;;22.10;14.07;;;7.80;89.10;;;;;;4810429;29;20034;-89
2021/04/20 04:32:34;;;;;;;27.83;17.10;;;7.80;89.10;;;;;;4810184;29;20050;-89
2021/04/20 04:35:04;;;;;;;21.55;14.88;;;7.80;89.30;;;;;;4826682;29;20402;-89
2021/04/20 04:37:35;;;;;;;23.40;15.70;;;7.80;89.30;;;;;;4810717;29;20117;-88
2021/04/20 04:40:04;;;;;;;16.90;11.70;;;7.90;89.40;;;;;;4810441;29;20038;-88
2021/04/20 04:42:33;;;;;;;21.30;15.02;;;7.90;89.30;;;;;;4810687;29;20088;-88
2021/04/20 04:45:02;;;;;;;19.42;13.80;;;7.90;88.80;;;;;;4810157;29;20034;-89
2021/04/20 04:47:29;;;;;;;21.85;13.85;;;7.90;88.70;;;;;;4810636;29;20037;-88
2021/04/20 04:50:00;;;;;;;21.35;14.13;;;8.00;88.50;;;;;;4810267;29;20086;-89
2021/04/20 04:52:29;;;;;;;27.60;19.90;;;8.00;88.50;;;;;;4830043;29;20073;-89
2021/04/20 04:54:56;;;;;;;21.77;16.38;;;8.00;88.40;;;;;;4813474;29;20039;-89
2021/04/20 04:57:28;;;;;;;18.55;14.38;;;8.10;88.20;;;;;;4831616;29;20073;-88
2021/04/20 05:00:07;;;;;;;15.15;10.18;;;8.20;88.20;;;;;;4829599;29;20034;-89
2021/04/20 05:02:38;;;;;;;17.30;11.57;;;8.30;88.40;;;;;;4831292;29;20204;-89
2021/04/20 05:05:09;;;;;;;18.40;11.38;;;8.40;88.30;;;;;;4814328;29;20044;-89
2021/04/20 05:07:36;;;;;;;16.67;11.30;;;8.60;88.40;;;;;;4832076;29;20054;-89
2021/04/20 05:10:10;;;;;;;20.05;14.15;;;8.70;88.00;;;;;;4815375;29;20102;-89
2021/04/20 05:12:36;;;;;;;19.60;12.18;;;8.80;86.80;;;;;;4813378;29;20041;-90
2021/04/20 05:15:13;;;;;;;19.90;13.50;;;8.90;86.40;;;;;;4813917;29;20042;-89
2021/04/20 05:17:40;;;;;;;15.90;12.20;;;9.00;85.50;;;;;;4812501;29;20025;-91
2021/04/20 05:20:07;;;;;;;17.67;12.38;;;9.00;85.20;;;;;;4809597;29;20037;-90
2021/04/20 05:22:35;;;;;;;15.50;12.23;;;9.00;85.20;;;;;;4809766;29;20031;-90
2021/04/20 05:25:08;;;;;;;16.25;11.50;;;9.10;85.20;;;;;;4810321;29;20038;-90
2021/04/20 05:27:34;;;;;;;16.40;11.75;;;9.20;84.90;;;;;;4810597;29;20030;-90
2021/04/20 05:30:07;;;;;;;17.58;12.40;;;9.20;84.70;;;;;;4809498;29;20034;-89
2021/04/20 05:32:35;;;;;;;20.83;12.02;;;9.20;83.80;;;;;;4829534;29;20053;-90
2021/04/20 05:35:02;;;;;;;14.73;10.95;;;9.30;83.80;;;;;;4842896;29;20057;-90
2021/04/20 05:37:44;;;;;;;15.00;10.05;;;9.30;83.40;;;;;;4842971;29;20026;-90
2021/04/20 05:40:14;;;;;;;14.45;11.05;;;9.40;83.70;;;;;;4843436;29;20036;-90
2021/04/20 05:42:41;;;;;;;15.35;11.45;;;9.40;82.70;;;;;;4842437;29;20056;-90
2021/04/20 05:45:08;;;;;;;15.65;12.20;;;9.40;82.20;;;;;;4858661;29;20576;-91
2021/04/20 05:47:47;;;;;;;21.55;12.43;;;9.50;82.30;;;;;;4842380;29;20467;-90
2021/04/20 05:50:24;;;;;;;15.77;11.98;;;9.40;81.30;;;;;;4843489;29;20468;-90
2021/04/20 05:52:52;;;;;;;15.18;11.40;;;9.50;81.20;;;;;;4845383;29;20414;-89
2021/04/20 05:55:18;;;;;;;14.38;10.80;;;9.50;80.90;;;;;;4847516;29;20418;-90
2021/04/20 05:57:48;;;;;;;14.88;11.18;;;9.50;81.00;;;;;;4843221;29;20033;-88
2021/04/20 06:00:18;;;;;;;11.85;9.10;;;9.60;80.80;;;;;;4843742;29;20040;-89
2021/04/20 06:02:47;;;;;;;14.48;10.18;;;9.80;80.90;;;;;;4844420;29;20051;-89
2021/04/20 06:05:20;;;;;;;15.40;11.27;;;9.90;80.30;;;;;;4876795;29;20089;-88
2021/04/20 06:07:52;;;;;;;13.75;9.98;;;10.00;79.90;;;;;;4863931;29;20010;-89
2021/04/20 06:10:18;;;;;;;13.10;9.75;;;10.00;79.30;;;;;;4863845;29;20067;-89
2021/04/20 06:12:48;;;;;;;16.13;11.73;;;10.10;79.10;;;;;;4879657;29;20049;-88
2021/04/20 06:15:19;;;;;;;16.30;11.75;;;10.20;78.60;;;;;;4859245;29;20124;-89
2021/04/20 06:17:48;;;;;;;14.60;11.50;;;10.20;78.20;;;;;;4864090;29;20037;-89
2021/04/20 06:20:23;;;;;;;12.45;9.18;;;10.20;78.30;;;;;;4861712;29;20056;-89
2021/04/20 06:22:51;;;;;;;15.40;12.10;;;10.30;78.70;;;;;;4862015;29;20030;-89
2021/04/20 06:25:18;;;;;;;14.90;12.20;;;10.30;78.30;;;;;;4861624;29;20046;-89
2021/04/20 06:27:48;;;;;;;15.82;11.48;;;10.30;77.60;;;;;;4861288;29;20034;-90
2021/04/20 06:30:14;;;;;;;15.52;11.18;;;10.40;77.60;;;;;;4858542;29;20030;-89
2021/04/20 06:32:44;;;;;;;13.93;10.32;;;10.50;77.80;;;;;;4857413;29;20140;-88
2021/04/20 06:35:13;;;;;;;13.43;10.90;;;10.60;77.90;;;;;;4859306;29;20117;-90
2021/04/20 06:37:41;;;;;;;12.27;9.30;;;10.70;77.30;;;;;;4858930;29;20470;-90
2021/04/20 06:40:10;;;;;;;13.88;9.10;;;10.70;77.30;;;;;;4857935;29;20083;-89
2021/04/20 06:42:50;;;;;;;13.38;9.88;;;10.80;77.30;;;;;;4857225;29;20030;-89
2021/04/20 06:45:22;;;;;;;15.32;10.77;;;10.80;76.70;;;;;;4857773;29;20154;-89
2021/04/20 06:48:00;;;;;;;14.70;10.93;;;10.80;76.60;;;;;;4857962;29;20034;-90
2021/04/20 06:50:31;;;;;;;13.40;9.57;;;10.70;75.20;;;;;;4844566;29;20030;-90
2021/04/20 06:53:20;;;;;;;15.18;11.65;;;10.70;76.50;;;;;;4857486;29;20026;-90
2021/04/20 06:56:16;;;;;;;13.80;10.13;;;10.80;76.40;;;;;;4854773;29;20065;-89
2021/04/20 06:59:13;;;;;;;12.55;9.93;;;10.90;76.10;;;;;;4859879;29;20470;-90
2021/04/20 07:01:55;;;;;;;12.88;10.48;;;10.90;75.80;;;;;;4847262;29;20082;-88
2021/04/20 07:04:33;;;;;;;12.32;10.55;;;10.90;75.50;;;;;;4861673;29;20331;-90
2021/04/20 07:07:05;;;;;;;14.38;11.07;;;10.90;75.50;;;;;;4861218;29;20034;-89
2021/04/20 07:09:36;;;;;;;12.98;10.45;;;11.00;75.70;;;;;;4862840;29;20041;-90
2021/04/20 07:12:03;;;;;;;17.45;10.60;;;11.00;75.40;;;;;;4861921;29;20459;-90
2021/04/20 07:14:40;;;;;;;12.55;9.57;;;11.20;75.20;;;;;;4860983;29;20511;-90
2021/04/20 07:17:24;;;;;;;11.38;9.30;;;11.30;75.20;;;;;;4860731;29;20038;-90
2021/04/20 07:20:14;;;;;;;12.40;9.95;;;11.40;74.90;;;;;;4860754;29;20030;-90
2021/04/20 07:23:04;;;;;;;14.38;10.57;;;11.60;73.00;;;;;;4846789;29;20030;-90
2021/04/20 07:25:46;;;;;;;11.27;9.07;;;11.80;70.90;;;;;;4861926;29;20094;-90
2021/04/20 07:28:41;;;;;;;12.20;8.43;;;11.80;71.40;;;;;;4859267;29;20034;-88
2021/04/20 07:31:10;;;;;;;;;;;12.00;69.70;;;;;;4831957;29;20042;-89
2021/04/20 07:33:57;;;;;;;9.23;7.68;;;12.10;68.50;;;;;;4845958;29;19916;-89
2021/04/20 07:36:44;;;;;;;11.38;8.15;;;12.20;70.20;;;;;;4844346;29;20377;-88
2021/04/20 07:39:19;;;;;;;11.88;8.57;;;12.30;69.90;;;;;;4844649;29;20033;-89
2021/04/20 07:42:02;;;;;;;10.93;9.07;;;12.40;68.80;;;;;;4845807;29;20098;-89
2021/04/20 07:45:01;;;;;;;10.70;8.52;;;12.40;69.30;;;;;;4844740;29;20030;-89
2021/04/20 07:47:33;;;;;;;7.97;7.10;;;12.50;69.30;;;;;;4836335;29;20049;-88
2021/04/20 07:50:08;;;;;;;9.40;6.90;;;12.70;69.40;;;;;;4864308;29;20046;-88
2021/04/20 07:53:11;;;;;;;9.48;7.63;;;12.90;69.00;;;;;;4866094;29;20018;-89
2021/04/20 07:56:19;;;;;;;9.20;6.97;;;13.00;67.00;;;;;;4864789;29;20067;-88
2021/04/20 07:58:49;;;;;;;8.52;6.55;;;13.10;66.60;;;;;;4850072;29;20030;-90
2021/04/20 08:01:30;;;;;;;8.85;7.40;;;13.20;67.80;;;;;;4846607;29;20030;-89
2021/04/20 08:04:05;;;;;;;9.35;7.32;;;13.30;66.30;;;;;;4846966;29;20038;-89
2021/04/20 08:06:33;;;;;;;8.05;6.65;;;13.40;65.70;;;;;;4852840;29;20033;-89
2021/04/20 08:09:09;;;;;;;9.32;6.57;;;13.50;66.40;;;;;;4848149;29;20424;-90
2021/04/20 08:12:20;;;;;;;7.63;6.22;;;13.60;65.80;;;;;;4849746;29;20367;-90
2021/04/20 08:15:09;;;;;;;7.68;6.80;;;13.70;63.70;;;;;;4834360;29;20066;-90
2021/04/20 08:17:52;;;;;;;7.13;5.82;;;13.70;61.80;;;;;;4834296;29;20034;-90
2021/04/20 08:20:22;;;;;;;8.65;6.75;;;13.70;63.60;;;;;;4846072;29;20051;-90
2021/04/20 08:22:52;;;;;;;9.45;6.03;;;13.60;62.50;;;;;;4829115;29;20046;-90
2021/04/20 08:25:33;;;;;;;8.23;6.05;;;13.70;63.20;;;;;;4843904;29;20154;-90
2021/04/20 08:28:27;;;;;;;7.95;7.00;;;13.70;62.10;;;;;;4834319;29;20526;-91
2021/04/20 08:31:07;;;;;;;9.48;7.05;;;13.70;60.10;;;;;;4828633;29;20041;-90
2021/04/20 08:33:43;;;;;;;6.88;5.72;;;13.60;59.30;;;;;;4844765;29;20050;-90
2021/04/20 08:36:32;;;;;;;7.50;6.35;;;13.60;60.30;;;;;;4849888;29;20037;-90
2021/04/20 08:39:21;;;;;;;7.03;5.72;;;13.60;59.00;;;;;;4861884;29;20034;-90
2021/04/20 08:41:57;;;;;;;8.23;6.50;;;13.70;58.50;;;;;;4860274;29;20036;-89
2021/04/20 08:44:42;;;;;;;5.78;5.18;;;13.70;58.30;;;;;;4850869;29;20063;-90
2021/04/20 08:47:41;;;;;;;6.38;5.25;;;13.80;59.10;;;;;;4846845;29;20034;-90
2021/04/20 08:50:12;;;;;;;6.38;4.97;;;14.00;58.80;;;;;;4830739;29;20034;-90
2021/04/20 08:53:09;;;;;;;5.72;4.90;;;14.10;58.50;;;;;;4832577;29;20443;-89
2021/04/20 08:56:08;;;;;;;7.25;4.70;;;14.30;58.00;;;;;;4844747;29;20057;-89
2021/04/20 08:58:58;;;;;;;5.32;4.82;;;14.40;55.40;;;;;;4827322;29;20041;-89
2021/04/20 09:01:57;;;;;;;5.18;4.30;;;14.50;55.40;;;;;;4844437;29;20030;-89
2021/04/20 09:04:46;;;;;;;5.25;4.60;;;14.70;54.40;;;;;;4843291;29;20026;-89
2021/04/20 09:07:53;;;;;;;4.43;4.00;;;14.90;52.10;;;;;;4826378;29;20038;-90
2021/04/20 09:10:31;;;;;;;6.57;4.70;;;14.90;51.30;;;;;;4814308;29;20382;-90
2021/04/20 09:13:07;;;;;;;5.53;4.15;;;15.00;54.30;;;;;;4844819;29;20387;-91
2021/04/20 09:18:59;;;;;;;;;;;;;;;;;;;;;
2021/04/20 09:21:54;;;;;;;;;;;;;;;;;;;;;
2021/04/20 15:26:03;;;;;;;;;;;;;;;;;;;;;
2021/04/20 15:28:32;;;;;;;9.77;8.20;;;17.80;48.70;;;;;;4888253;29;20092;-90
2021/04/20 15:31:51;;;;;;;;;;;;;;;;;;;;;
2021/04/20 15:38:19;;;;;;;;;;;;;;;;;;;;;
2021/04/20 15:40:55;;;;;;;8.43;7.43;;;17.00;49.20;;;;;;4885829;29;20104;-92
2021/04/20 15:43:27;;;;;;;9.65;8.65;;;16.50;50.70;;;;;;4878196;29;20029;-92
2021/04/20 15:46:17;;;;;;;;;;;;;;;;;;;;;
2021/04/20 15:52:43;;;;;;;9.35;7.82;;;16.00;51.40;;;;;;4892136;29;20037;-92
2021/04/20 15:55:32;;;;;;;7.95;7.15;;;15.70;51.60;;;;;;4889876;29;20046;-91
2021/04/20 15:58:13;;;;;;;9.82;8.70;;;15.30;52.70;;;;;;4893891;29;20045;-93
2021/04/20 16:01:05;;;;;;;10.30;8.48;;;15.00;53.60;;;;;;4879767;29;20030;-92
2021/04/20 16:03:39;;;;;;;12.55;9.07;;;14.70;55.00;;;;;;4869982;29;20037;-93
2021/04/20 16:06:23;;;;;;;;;;;;;;;;;;;;;
2021/04/20 16:09:10;;;;;;;;;;;;;;;;;;;;;
2021/04/20 16:12:13;;;;;;;10.48;8.65;;;13.90;57.70;;;;;;4863940;29;20038;-92
2021/04/20 16:15:00;;;;;;;;;;;;;;;;;;;;;
2021/04/20 16:17:51;;;;;;;9.50;8.15;;;13.30;58.80;;;;;;4874468;29;20504;-91
2021/04/20 16:20:31;;;;;;;9.15;7.95;;;13.20;59.60;;;;;;4884703;29;20029;-91
2021/04/20 16:23:17;;;;;;;10.48;8.60;;;13.00;60.80;;;;;;4874016;29;20390;-91
2021/04/20 16:25:45;;;;;;;10.43;8.82;;;12.80;60.50;;;;;;4878977;29;20576;-91
2021/04/20 16:28:17;;;;;;;9.82;8.10;;;12.70;60.80;;;;;;4881338;29;20033;-92
2021/04/20 16:30:48;;;;;;;8.10;7.07;;;12.70;61.50;;;;;;4882213;29;20105;-92
2021/04/20 16:33:20;;;;;;;8.32;7.22;;;12.60;61.60;;;;;;4883463;29;20033;-92
2021/04/20 16:35:56;;;;;;;9.77;8.30;;;12.50;61.80;;;;;;4867305;29;20052;-92
2021/04/20 16:38:50;;;;;;;10.10;7.60;;;12.50;62.60;;;;;;4882475;29;20025;-92
2021/04/20 16:41:28;;;;;;;9.80;7.22;;;12.40;63.30;;;;;;4882722;29;20040;-89
2021/04/20 16:44:29;;;;;;;8.35;7.32;;;12.30;63.40;;;;;;4887672;29;20085;-89
2021/04/20 16:47:19;;;;;;;10.25;7.68;;;12.20;63.70;;;;;;4899310;29;20044;-89
2021/04/20 16:50:10;;;;;;;7.10;6.00;;;12.10;64.00;;;;;;4899115;29;20029;-89
2021/04/20 16:53:21;;;;;;;7.88;6.28;;;12.00;64.60;;;;;;4894417;29;20477;-90
2021/04/20 16:55:51;;;;;;;9.25;7.22;;;11.90;66.30;;;;;;4886967;29;20052;-90
2021/04/20 16:58:36;;;;;;;7.40;6.22;;;11.80;65.80;;;;;;4882649;29;20081;-90
2021/04/20 17:01:38;;;;;;;7.60;6.30;;;11.70;65.90;;;;;;4882605;29;20033;-90
2021/04/20 17:04:16;;;;;;;7.35;6.47;;;11.70;66.50;;;;;;4883415;29;20064;-90
2021/04/20 17:07:23;;;;;;;6.47;5.40;;;11.60;66.10;;;;;;4883241;29;20032;-91
2021/04/20 17:10:25;;;;;;;7.05;5.82;;;11.50;66.10;;;;;;4880891;29;20029;-90
2021/04/20 17:13:31;;;;;;;10.10;6.50;;;11.50;68.00;;;;;;4880969;29;20029;-91
2021/04/20 17:16:51;;;;;;;8.48;6.38;;;11.40;68.20;;;;;;4880588;29;20045;-91
2021/04/20 17:19:54;;;;;;;7.00;5.60;;;11.40;68.20;;;;;;4881617;29;20036;-91
2021/04/20 17:22:50;;;;;;;7.53;6.63;;;11.30;67.60;;;;;;4886972;29;20080;-91
2021/04/20 17:25:40;;;;;;;7.72;6.80;;;11.30;69.30;;;;;;4865993;29;20122;-93
2021/04/20 17:28:12;;;;;;;7.40;6.57;;;11.20;67.70;;;;;;4879061;29;20044;-92
2021/04/20 17:31:35;;;;;;;6.63;5.80;;;11.20;68.70;;;;;;4874422;29;20029;-92
2021/04/20 17:34:28;;;;;;;8.40;5.72;;;11.20;70.80;;;;;;4869541;29;20137;-90
2021/04/20 17:37:39;;;;;;;8.20;6.30;;;11.20;68.10;;;;;;4856301;29;20049;-91
2021/04/20 17:40:21;;;;;;;9.65;6.40;;;11.20;69.40;;;;;;4900704;29;20032;-91
2021/04/20 17:42:59;;;;;;;7.03;5.68;;;11.20;68.80;;;;;;4881594;29;20056;-91
2021/04/20 17:45:38;;;;;;;7.80;6.57;;;11.20;68.50;;;;;;4880698;29;20033;-91
2021/04/20 17:48:53;;;;;;;9.35;7.18;;;11.20;68.70;;;;;;4880766;29;20087;-91
2021/04/20 17:51:58;;;;;;;8.50;6.68;;;11.20;69.80;;;;;;4869742;29;20041;-91
2021/04/20 17:54:56;;;;;;;10.05;7.65;;;11.20;69.50;;;;;;4859847;29;20041;-91
2021/04/20 17:57:28;;;;;;;9.00;6.75;;;11.20;69.60;;;;;;4861080;29;20061;-90
2021/04/20 18:00:12;;;;;;;8.80;7.32;;;11.20;69.10;;;;;;4877289;29;20533;-91
2021/04/20 18:02:44;;;;;;;7.47;6.10;;;11.20;69.10;;;;;;4877438;29;20034;-91
2021/04/20 18:05:22;;;;;;;6.82;5.35;;;11.20;69.10;;;;;;4877457;29;20048;-91
2021/04/20 18:08:29;;;;;;;7.72;5.88;;;11.20;68.90;;;;;;4877028;29;20040;-91
2021/04/20 18:11:30;;;;;;;9.75;6.82;;;11.20;70.70;;;;;;4877363;29;20025;-91
2021/04/20 18:14:28;;;;;;;9.18;7.35;;;11.10;69.40;;;;;;4877023;29;20045;-91
2021/04/20 18:17:21;;;;;;;9.43;7.30;;;11.10;70.70;;;;;;4876886;29;20037;-91
2021/04/20 18:20:08;;;;;;;9.00;6.88;;;11.10;70.00;;;;;;4877471;29;20066;-91
2021/04/20 18:23:04;;;;;;;8.73;7.05;;;11.00;70.00;;;;;;4878430;29;20029;-91
2021/04/20 18:25:54;;;;;;;9.48;6.93;;;11.00;70.80;;;;;;4877472;29;20092;-90
2021/04/20 18:28:33;;;;;;;7.82;6.63;;;10.90;70.60;;;;;;4890585;29;20033;-91
2021/04/20 18:31:13;;;;;;;10.45;8.88;;;10.90;70.50;;;;;;4892190;29;20033;-91
2021/04/20 18:33:51;;;;;;;10.57;7.07;;;10.90;71.10;;;;;;4891036;29;20044;-91
2021/04/20 18:36:42;;;;;;;10.20;7.43;;;10.80;70.90;;;;;;4891788;29;20030;-91
2021/04/20 18:39:39;;;;;;;10.00;7.72;;;10.80;71.40;;;;;;4892894;29;20124;-91
2021/04/20 18:42:20;;;;;;;11.45;7.57;;;10.80;72.00;;;;;;4891286;29;20082;-91
2021/04/20 18:45:05;;;;;;;9.45;7.22;;;10.80;71.60;;;;;;4887563;29;20055;-91
2021/04/20 18:47:54;;;;;;;8.27;6.45;;;10.70;72.70;;;;;;4884695;29;20030;-90
2021/04/20 18:50:28;;;;;;;8.73;6.88;;;10.70;71.70;;;;;;4877435;29;20101;-91
2021/04/20 18:53:13;;;;;;;8.70;6.30;;;10.70;71.30;;;;;;4878112;29;20055;-90
2021/04/20 18:55:58;;;;;;;9.60;6.63;;;10.70;71.60;;;;;;4880912;29;20204;-90
2021/04/20 18:58:46;;;;;;;9.25;6.72;;;10.70;72.20;;;;;;4880479;29;20033;-90
2021/04/20 19:01:24;;;;;;;7.68;6.03;;;10.70;72.10;;;;;;4866142;29;20029;-91
2021/04/20 19:04:07;;;;;;;9.27;7.90;;;10.70;71.50;;;;;;4880436;29;20030;-91
2021/04/20 19:06:52;;;;;;;9.57;7.40;;;10.70;72.10;;;;;;4880231;29;20074;-91
2021/04/20 19:09:25;;;;;;;11.07;8.80;;;10.70;72.70;;;;;;4900869;29;20090;-91
2021/04/20 19:11:58;;;;;;;10.20;8.60;;;10.70;72.10;;;;;;4888851;29;20020;-90
2021/04/20 19:15:17;;;;;;;11.13;8.02;;;10.70;72.00;;;;;;4903833;29;20292;-89
2021/04/20 19:18:11;;;;;;;;;;;;;;;;;;;;;
2021/04/20 19:20:42;;;;;;;10.40;8.02;;;10.60;72.30;;;;;;4835139;29;20125;-90
2021/04/20 19:23:24;;;;;;;10.30;6.97;;;10.60;72.40;;;;;;4871821;29;20140;-90
2021/04/20 19:25:59;;;;;;;7.82;6.72;;;10.60;73.00;;;;;;4882774;29;20118;-90
2021/04/20 19:28:39;;;;;;;9.48;7.90;;;10.50;72.60;;;;;;4881281;29;20121;-90
2021/04/20 19:31:42;;;;;;;10.73;6.85;;;10.50;72.90;;;;;;4889695;29;20040;-91
2021/04/20 19:34:29;;;;;;;10.20;8.35;;;10.50;72.40;;;;;;4881050;29;20492;-91
2021/04/20 19:37:02;;;;;;;10.20;8.50;;;10.50;73.10;;;;;;4865404;29;20450;-91
2021/04/20 19:40:01;;;;;;;12.00;8.15;;;10.50;73.00;;;;;;4879980;29;20033;-91
2021/04/20 19:42:57;;;;;;;10.85;7.65;;;10.50;72.80;;;;;;4879778;29;20584;-92
2021/04/20 19:45:35;;;;;;;9.55;7.32;;;10.50;73.00;;;;;;4890792;29;20033;-91
2021/04/20 19:48:03;;;;;;;8.02;7.20;;;10.40;73.40;;;;;;4895314;29;20041;-91
2021/04/20 19:50:35;;;;;;;11.48;7.82;;;10.40;73.30;;;;;;4894767;29;20025;-91
2021/04/20 19:53:06;;;;;;;10.00;7.68;;;10.30;73.90;;;;;;4896007;29;20060;-91
2021/04/20 19:55:33;;;;;;;9.10;7.95;;;10.30;73.70;;;;;;4894519;29;20040;-90
2021/04/20 19:58:00;;;;;;;10.32;7.85;;;10.30;74.40;;;;;;4894319;29;20029;-91